Aeroporto :
LOGIN :

Iscrizione | Disclaimer

   EN    FR    IT 

 










Sommario :    VFR   VFR Marginale   IFR   IFR Intensivo   IFR Molto Intensivo
Visibilità : 
Base nubi : 
>= 8 km
>= 3000ft
5 / 8 km
1000 / 3000 ft
1500m / 5 km
500 / 1000 ft
800 / 1500m
200 / 500 ft
< 800m
< 200 ft
Simboli :   Temporali  Nebbia  Neve Forte  Precipitazioni Forti  Vento > 20 kt
SIGMETs :   Varie  Temporali  Ghiacco  Turbolenza  Onda orograficha  Ceneri Vulcaniche







- Altitudine del aeroporto : 102 ft
- Codice IATA : EXT
- Carte del aeroporto


EGTE - Exeter

ULTIMO METAR :
  • 251550Z 36007KT 330V040 9999 SCT025 22/17 Q1019

METARs OBSOLETI :
  • 251520Z 35009KT 310V040 9999 SCT025 23/17 Q1019
  • 251450Z 35006KT 310V030 9999 SCT025 22/17 Q1019
  • 251420Z 35006KT 9999 SCT025 21/16 Q1019
  • 251350Z 02006KT 320V060 9999 SCT025 23/17 Q1019
  • 251320Z 03009KT 9999 SCT022 23/18 Q1019
  • 251250Z 03007KT 360V060 9999 SCT020 22/17 Q1019

TAF TAF EGTE
Valido dal 25 a 15 ore il 26 a 00 ore UTC


251359Z 2515/2524 VRB03KT 9999 BKN025
PROB30
TEMPO 2515/2518 7000 SHRA BKN014
PROB30
TEMPO 2518/2521 8000
PROB40 2521/2524 7000 BKN012
Nessun NOTAM noto per questo aeroporto.
1 SIGMET conosciuto per la FIR London (EGTT) :
 
Temporali affogati
EGTT SIGMET 04 VALID 251300/251700 EGRR
EGTT LONDON FIR EMBD TS FCST WI N5446 E00441 - N5302 W00002 - N5455 E00147 - N5500 E00214 - N5500 E00448 - N5446 E00441 TOP FL350 MOV NE 15KT WKN=



MetMap, La meteo Aeronautica in un colpo d'occhio ! - Copyright ORBIFLY Dicembre 2007 - Disclaimer

ORBIFLY MET'MAP TEAM :

Programmazione e sviluppo : Alexandra Zaïnal
Concezione e sviluppo : Baudouin d'Aumeries
Co-Programmazione e sviluppo : Marc-Olivier Méhu
Supporto tecnico e logistico : Manuel Goepfert
Aiuto per la traduzione : Arnaldo La Scala

Contatto : metmap@orbifly.com




FONTI E CREDITI :

   NOAA